createdAt,value
2017-09-18T00:02:27.655Z,92.00
2017-09-18T00:04:56.676Z,92.20
2017-09-18T00:07:24.933Z,92.10
2017-09-18T00:09:53.948Z,92.10
2017-09-18T00:12:22.373Z,92.10
2017-09-18T00:14:50.626Z,92.10
2017-09-18T00:17:18.882Z,92.00
2017-09-18T00:19:47.915Z,92.10
2017-09-18T00:22:16.186Z,92.00
2017-09-18T00:24:45.078Z,92.10
2017-09-18T00:27:13.340Z,92.10
2017-09-18T00:29:41.594Z,91.90
2017-09-18T00:32:09.831Z,91.80
2017-09-18T00:34:38.089Z,91.60
2017-09-18T00:37:06.340Z,91.50
2017-09-18T00:39:35.362Z,91.50
2017-09-18T00:42:03.616Z,91.50
2017-09-18T00:44:32.675Z,91.60
2017-09-18T00:47:00.921Z,91.60
2017-09-18T00:49:29.186Z,91.70
2017-09-18T00:51:58.200Z,91.80
2017-09-18T00:54:26.459Z,91.80
2017-09-18T00:56:55.483Z,91.90
2017-09-18T00:59:23.821Z,92.00
2017-09-18T01:01:52.042Z,92.10
2017-09-18T01:04:21.074Z,92.80
2017-09-18T01:06:49.313Z,92.80
2017-09-18T01:09:18.283Z,93.30
2017-09-18T01:11:46.663Z,93.30
2017-09-18T01:14:14.935Z,93.30
2017-09-18T01:16:43.192Z,93.60
2017-09-18T01:19:11.457Z,93.50
2017-09-18T01:21:39.785Z,93.30
2017-09-18T01:24:09.554Z,93.10
2017-09-18T01:26:37.803Z,93.00
2017-09-18T01:29:06.831Z,93.10
2017-09-18T01:31:35.083Z,93.10
2017-09-18T01:34:04.114Z,93.00
2017-09-18T01:36:32.361Z,93.00
2017-09-18T01:39:01.387Z,92.90
2017-09-18T01:41:29.636Z,92.90
2017-09-18T01:43:59.719Z,92.60
2017-09-18T01:46:27.969Z,92.60
2017-09-18T01:48:56.306Z,92.40
2017-09-18T01:51:25.320Z,92.40
2017-09-18T01:53:54.111Z,92.40
2017-09-18T01:56:22.367Z,92.30
2017-09-18T01:58:50.631Z,92.10
2017-09-18T02:01:18.880Z,92.10
2017-09-18T02:03:48.009Z,92.30
2017-09-18T02:06:16.254Z,92.30
2017-09-18T02:08:44.530Z,92.30
2017-09-18T02:11:13.539Z,92.30
2017-09-18T02:13:41.803Z,92.30
2017-09-18T02:16:10.819Z,92.60
2017-09-18T02:18:39.069Z,92.60
2017-09-18T02:21:08.159Z,92.80
2017-09-18T02:23:36.451Z,92.80
2017-09-18T02:26:04.731Z,92.80
2017-09-18T02:28:33.006Z,93.00
2017-09-18T02:31:01.279Z,93.30
2017-09-18T02:33:29.627Z,94.60
2017-09-18T02:35:57.875Z,94.60
2017-09-18T02:38:26.884Z,95.40
2017-09-18T02:40:55.141Z,95.40
2017-09-18T02:43:24.156Z,95.70
2017-09-18T02:45:53.177Z,95.80
2017-09-18T02:48:21.411Z,95.80
2017-09-18T02:50:50.433Z,96.00
2017-09-18T02:53:18.751Z,95.80
2017-09-18T02:55:47.114Z,95.80
2017-09-18T02:58:15.406Z,95.90
2017-09-18T03:00:43.664Z,95.80
2017-09-18T03:03:11.964Z,95.60
2017-09-18T03:05:40.227Z,95.50
2017-09-18T03:08:09.235Z,95.70
2017-09-18T03:10:37.500Z,95.70
2017-09-18T03:13:05.742Z,95.70
2017-09-18T03:15:34.945Z,95.40
2017-09-18T03:18:03.179Z,95.40
2017-09-18T03:20:31.467Z,95.30
2017-09-18T03:22:59.781Z,95.40
2017-09-18T03:25:28.077Z,95.40
2017-09-18T03:27:57.676Z,95.20
2017-09-18T03:30:25.930Z,95.20
2017-09-18T03:32:54.166Z,95.40
2017-09-18T03:35:23.202Z,95.40
2017-09-18T03:37:51.490Z,95.40
2017-09-18T03:40:19.747Z,95.50
2017-09-18T03:42:48.006Z,95.70
2017-09-18T03:45:17.035Z,96.00
2017-09-18T03:47:45.294Z,95.90
2017-09-18T03:50:13.561Z,95.90
2017-09-18T03:52:42.574Z,96.20
2017-09-18T03:55:11.779Z,96.20
2017-09-18T03:57:40.046Z,96.50
2017-09-18T04:00:09.070Z,96.00
2017-09-18T04:02:37.305Z,95.90
2017-09-18T04:05:06.322Z,96.10
2017-09-18T04:07:35.420Z,95.60
2017-09-18T04:10:04.427Z,95.30
2017-09-18T04:12:32.690Z,95.30
2017-09-18T04:15:01.876Z,95.00
2017-09-18T04:17:30.106Z,95.00
2017-09-18T04:19:58.364Z,95.20
2017-09-18T04:22:27.390Z,95.10
2017-09-18T04:24:55.653Z,95.10
2017-09-18T04:27:23.971Z,95.20
2017-09-18T04:29:52.385Z,95.40
2017-09-18T04:32:20.622Z,95.50
2017-09-18T04:34:48.859Z,95.60
2017-09-18T04:37:17.970Z,95.70
2017-09-18T04:39:46.200Z,95.50
2017-09-18T04:42:14.465Z,95.50
2017-09-18T04:44:42.712Z,95.40
2017-09-18T04:47:11.729Z,95.30
2017-09-18T04:49:40.065Z,95.30
2017-09-18T04:52:08.326Z,95.30
2017-09-18T04:54:36.683Z,95.30
2017-09-18T04:57:04.943Z,95.20
2017-09-18T04:59:33.211Z,95.10
2017-09-18T05:02:02.246Z,94.80
2017-09-18T05:04:30.485Z,94.80
2017-09-18T05:06:58.818Z,94.80
2017-09-18T05:09:27.118Z,94.70
2017-09-18T05:11:55.371Z,94.60
2017-09-18T05:14:23.628Z,94.60
2017-09-18T05:16:51.887Z,94.60
2017-09-18T05:19:20.919Z,94.60
2017-09-18T05:21:49.177Z,94.60
2017-09-18T05:24:18.198Z,94.90
2017-09-18T05:26:46.492Z,95.00
2017-09-18T05:29:14.735Z,94.90
2017-09-18T05:31:43.084Z,94.90
2017-09-18T05:34:11.334Z,95.00
2017-09-18T05:36:39.594Z,95.00
2017-09-18T05:39:07.853Z,95.20
2017-09-18T05:41:37.719Z,95.20
2017-09-18T05:44:05.979Z,95.10
2017-09-18T05:46:34.380Z,95.30
2017-09-18T05:49:03.643Z,95.30
2017-09-18T05:51:32.657Z,95.30
2017-09-18T05:54:00.900Z,95.30
2017-09-18T05:56:29.189Z,94.80
2017-09-18T05:58:58.396Z,94.80
2017-09-18T06:01:27.414Z,94.60
2017-09-18T06:03:55.732Z,94.60
2017-09-18T06:06:23.981Z,94.40
2017-09-18T06:08:52.235Z,94.30
2017-09-18T06:11:21.263Z,94.10
2017-09-18T06:13:50.295Z,94.00
2017-09-18T06:16:18.537Z,94.00
2017-09-18T06:18:46.829Z,93.70
2017-09-18T06:21:15.083Z,93.10
2017-09-18T06:23:44.121Z,93.00
2017-09-18T06:26:12.373Z,93.00
2017-09-18T06:28:41.394Z,92.90
2017-09-18T06:31:09.643Z,92.90
2017-09-18T06:33:38.686Z,93.20
2017-09-18T06:36:06.934Z,93.20
2017-09-18T06:38:35.207Z,93.30
2017-09-18T06:41:04.211Z,93.50
2017-09-18T06:43:33.238Z,93.60
2017-09-18T06:46:01.478Z,93.60
2017-09-18T06:48:30.510Z,93.60
2017-09-18T06:50:58.763Z,93.60
2017-09-18T06:53:27.802Z,93.80
2017-09-18T06:55:56.057Z,93.80
2017-09-18T06:58:24.324Z,93.60
2017-09-18T07:00:53.340Z,93.70
2017-09-18T07:03:21.615Z,93.70
2017-09-18T07:05:49.879Z,93.60
2017-09-18T07:08:19.123Z,93.80
2017-09-18T07:10:47.430Z,93.80
2017-09-18T07:13:16.339Z,94.00
2017-09-18T07:15:45.884Z,93.80
2017-09-18T07:18:14.628Z,93.80
2017-09-18T07:20:43.715Z,93.90
2017-09-18T07:23:12.537Z,93.90
2017-09-18T07:25:41.226Z,94.10
2017-09-18T07:28:09.636Z,94.10
2017-09-18T07:30:37.950Z,93.90
2017-09-18T07:33:06.367Z,93.80
2017-09-18T07:35:34.616Z,93.60
2017-09-18T07:38:02.893Z,93.60
2017-09-18T07:40:31.155Z,93.00
2017-09-18T07:42:59.439Z,92.90
2017-09-18T07:45:28.472Z,92.60
2017-09-18T07:47:57.528Z,92.80
2017-09-18T07:50:25.806Z,92.80
2017-09-18T07:52:54.857Z,93.10
2017-09-18T07:55:23.117Z,93.10
2017-09-18T07:57:51.747Z,92.90
2017-09-18T08:00:20.909Z,92.50
2017-09-18T08:02:50.156Z,92.50
2017-09-18T08:05:19.044Z,92.40
2017-09-18T08:07:47.481Z,93.00
2017-09-18T08:10:15.960Z,92.60
2017-09-18T08:12:44.387Z,92.60
2017-09-18T08:15:12.737Z,92.50
2017-09-18T08:17:40.992Z,92.30
2017-09-18T08:20:10.035Z,92.80
2017-09-18T08:22:38.614Z,92.40
2017-09-18T08:25:06.892Z,92.40
2017-09-18T08:27:35.154Z,92.30
2017-09-18T08:30:03.508Z,92.00
2017-09-18T08:32:31.757Z,92.10
2017-09-18T08:35:00.152Z,91.60
2017-09-18T08:37:28.393Z,91.20
2017-09-18T08:39:56.689Z,91.50
2017-09-18T08:42:24.953Z,91.50
2017-09-18T08:44:53.244Z,91.20
2017-09-18T08:47:21.518Z,91.50
2017-09-18T08:49:49.788Z,91.70
2017-09-18T08:52:18.054Z,91.60
2017-09-18T08:54:47.096Z,91.90
2017-09-18T08:57:15.359Z,91.90
2017-09-18T08:59:43.630Z,92.00
2017-09-18T09:02:11.896Z,92.10
2017-09-18T09:04:40.934Z,92.30
2017-09-18T09:07:09.226Z,92.30
2017-09-18T09:09:38.302Z,91.70
2017-09-18T09:12:06.657Z,91.70
2017-09-18T09:14:35.692Z,91.50
2017-09-18T09:19:38.704Z,91.20
2017-09-18T09:22:07.007Z,91.40
2017-09-18T09:24:35.270Z,91.10
2017-09-18T09:27:03.536Z,90.90
2017-09-18T09:29:31.823Z,91.10
2017-09-18T09:32:00.119Z,90.40
2017-09-18T09:34:28.365Z,90.50
2017-09-18T09:36:57.418Z,90.00
2017-09-18T09:39:25.671Z,90.00
2017-09-18T09:41:53.931Z,89.80
2017-09-18T09:44:22.948Z,89.50
2017-09-18T09:46:51.205Z,89.50
2017-09-18T09:49:20.212Z,90.00
2017-09-18T09:51:48.478Z,90.00
2017-09-18T09:54:16.755Z,89.30
2017-09-18T09:56:45.783Z,89.00
2017-09-18T09:59:14.027Z,89.10
2017-09-18T10:01:43.067Z,86.70
2017-09-18T10:04:11.301Z,86.80
2017-09-18T10:06:39.567Z,86.40
2017-09-18T10:09:07.827Z,85.60
2017-09-18T10:11:36.126Z,84.80
2017-09-18T10:14:04.417Z,84.50
2017-09-18T10:16:32.674Z,84.40
2017-09-18T10:19:00.933Z,84.40
2017-09-18T10:21:29.211Z,84.70
2017-09-18T10:23:57.451Z,83.90
2017-09-18T10:26:26.480Z,85.20
2017-09-18T10:28:54.727Z,85.20
2017-09-18T10:31:23.059Z,85.50
2017-09-18T10:33:51.380Z,85.70
2017-09-18T10:36:19.624Z,84.40
2017-09-18T10:38:48.462Z,84.20
2017-09-18T10:41:18.211Z,81.30
2017-09-18T10:43:47.230Z,80.80
2017-09-18T10:46:15.519Z,80.80
2017-09-18T10:48:43.768Z,80.40
2017-09-18T10:51:12.785Z,74.20
2017-09-18T10:53:41.030Z,74.20
2017-09-18T10:56:10.046Z,74.20
2017-09-18T10:58:38.307Z,74.20
2017-09-18T11:01:07.385Z,75.10
2017-09-18T11:03:35.646Z,75.10
2017-09-18T11:06:03.883Z,74.30
2017-09-18T11:08:32.143Z,73.90
2017-09-18T11:11:00.386Z,74.40
2017-09-18T11:13:28.652Z,73.40
2017-09-18T11:15:56.892Z,73.30
2017-09-18T11:18:25.919Z,73.10
2017-09-18T11:20:54.171Z,73.00
2017-09-18T11:23:23.196Z,73.40
2017-09-18T11:25:51.441Z,73.40
2017-09-18T11:28:19.691Z,73.20
2017-09-18T11:30:47.934Z,74.10
2017-09-18T11:33:16.343Z,75.00
2017-09-18T11:35:44.747Z,75.90
2017-09-18T11:38:13.052Z,77.80
2017-09-18T11:40:42.148Z,78.90
2017-09-18T11:43:10.382Z,78.90
2017-09-18T11:45:38.644Z,80.00
2017-09-18T11:48:06.899Z,80.50
2017-09-18T11:50:35.951Z,75.00
2017-09-18T11:53:04.211Z,74.90
2017-09-18T11:55:32.470Z,74.90
2017-09-18T11:58:00.714Z,74.00
2017-09-18T12:00:28.975Z,74.10
2017-09-18T12:02:57.213Z,74.70
2017-09-18T12:05:25.480Z,74.20
2017-09-18T12:07:54.488Z,73.40
2017-09-18T12:10:22.895Z,73.50
2017-09-18T12:12:51.413Z,72.70
2017-09-18T12:15:19.725Z,71.00
2017-09-18T12:17:49.464Z,72.50
2017-09-18T12:20:17.718Z,72.60
2017-09-18T12:22:46.726Z,73.50
2017-09-18T12:25:14.994Z,73.50
2017-09-18T12:27:43.997Z,71.90
2017-09-18T12:30:13.071Z,72.90
2017-09-18T12:32:41.420Z,73.60
2017-09-18T12:35:10.808Z,71.10
2017-09-18T12:37:39.051Z,71.30
2017-09-18T12:40:08.075Z,67.30
2017-09-18T12:42:36.311Z,67.40
2017-09-18T12:45:04.825Z,67.90
2017-09-18T12:47:33.843Z,67.00
2017-09-18T12:50:02.223Z,66.80
2017-09-18T12:52:31.315Z,66.10
2017-09-18T12:54:59.613Z,66.10
2017-09-18T12:57:28.054Z,64.40
2017-09-18T12:59:57.149Z,65.60
2017-09-18T13:02:26.300Z,66.00
2017-09-18T13:04:54.623Z,66.00
2017-09-18T13:07:23.016Z,65.90
2017-09-18T13:09:51.273Z,67.10
2017-09-18T13:12:19.552Z,66.60
2017-09-18T13:14:47.782Z,66.20
2017-09-18T13:17:16.816Z,63.80
2017-09-18T13:19:45.067Z,63.80
2017-09-18T13:22:14.205Z,64.30
2017-09-18T13:24:42.720Z,64.20
2017-09-18T13:27:11.073Z,63.90
2017-09-18T13:29:39.432Z,63.20
2017-09-18T13:32:07.768Z,63.10
2017-09-18T13:34:37.522Z,63.00
2017-09-18T13:37:05.835Z,62.90
2017-09-18T13:39:34.078Z,62.50
2017-09-18T13:42:03.148Z,64.20
2017-09-18T13:44:31.419Z,64.10
2017-09-18T13:46:59.720Z,64.90
2017-09-18T13:49:29.466Z,61.90
2017-09-18T13:51:57.813Z,61.90
2017-09-18T13:54:26.093Z,61.70
2017-09-18T13:56:54.345Z,61.60
2017-09-18T13:59:22.616Z,61.60
2017-09-18T14:01:50.879Z,62.70
2017-09-18T14:04:19.207Z,61.40
2017-09-18T14:06:47.445Z,62.10
2017-09-18T14:09:15.705Z,61.30
2017-09-18T14:11:44.781Z,62.30
2017-09-18T14:14:14.552Z,62.20
2017-09-18T14:16:42.786Z,62.60
2017-09-18T14:19:11.052Z,61.10
2017-09-18T14:21:39.304Z,63.00
2017-09-18T14:24:07.551Z,60.20
2017-09-18T14:26:36.604Z,61.60
2017-09-18T14:29:04.880Z,61.60
2017-09-18T14:31:33.119Z,62.10
2017-09-18T14:34:01.883Z,61.60
2017-09-18T14:36:30.898Z,64.30
2017-09-18T14:38:59.164Z,64.10
2017-09-18T14:41:27.405Z,63.30
2017-09-18T14:43:55.689Z,63.00
2017-09-18T14:46:23.932Z,62.50
2017-09-18T14:48:52.209Z,62.40
2017-09-18T14:51:20.506Z,61.70
2017-09-18T14:53:49.517Z,60.90
2017-09-18T14:56:17.751Z,60.90
2017-09-18T14:58:46.779Z,62.90
2017-09-18T15:01:15.035Z,62.90
2017-09-18T15:03:44.107Z,63.20
2017-09-18T15:06:12.693Z,63.20
2017-09-18T15:08:40.937Z,64.10
2017-09-18T15:11:09.199Z,63.40
2017-09-18T15:13:37.438Z,62.50
2017-09-18T15:16:06.487Z,62.70
2017-09-18T15:18:34.740Z,62.70
2017-09-18T15:21:03.775Z,62.80
2017-09-18T15:23:32.019Z,62.60
2017-09-18T15:26:01.046Z,60.40
2017-09-18T15:28:30.054Z,60.00
2017-09-18T15:30:59.088Z,60.00
2017-09-18T15:33:27.373Z,60.00
2017-09-18T15:35:55.623Z,60.50
2017-09-18T15:38:23.956Z,61.40
2017-09-18T15:40:52.592Z,62.50
2017-09-18T15:43:20.828Z,63.50
2017-09-18T15:45:49.147Z,63.90
2017-09-18T15:48:17.408Z,64.60
2017-09-18T15:50:46.441Z,66.90
2017-09-18T15:53:14.685Z,66.90
2017-09-18T15:55:42.956Z,67.30
2017-09-18T15:58:11.178Z,65.90
2017-09-18T16:00:39.430Z,65.70
2017-09-18T16:03:08.471Z,66.30
2017-09-18T16:05:36.730Z,66.10
2017-09-18T16:08:05.039Z,66.90
2017-09-18T16:10:33.316Z,66.40
2017-09-18T16:13:01.556Z,66.60
2017-09-18T16:15:30.654Z,66.80
2017-09-18T16:17:59.701Z,67.20
2017-09-18T16:20:27.942Z,67.10
2017-09-18T16:22:56.968Z,66.30
2017-09-18T16:25:25.205Z,67.10
2017-09-18T16:27:53.535Z,67.30
2017-09-18T16:30:21.769Z,67.50
2017-09-18T16:32:50.799Z,68.20
2017-09-18T16:35:19.191Z,68.20
2017-09-18T16:37:47.448Z,68.10
2017-09-18T16:40:16.446Z,68.20
2017-09-18T16:42:45.574Z,68.50
2017-09-18T16:45:13.819Z,68.50
2017-09-18T16:47:42.992Z,68.30
2017-09-18T16:50:11.253Z,68.60
2017-09-18T16:52:39.513Z,68.40
2017-09-18T16:55:07.750Z,68.70
2017-09-18T16:57:36.104Z,67.90
2017-09-18T17:00:04.359Z,67.90
2017-09-18T17:02:32.651Z,68.20
2017-09-18T17:05:00.936Z,68.30
2017-09-18T17:07:29.222Z,68.20
2017-09-18T17:09:57.496Z,68.70
2017-09-18T17:12:25.775Z,69.60
2017-09-18T17:14:54.053Z,70.00
2017-09-18T17:17:22.307Z,70.40
2017-09-18T17:19:51.316Z,71.10
2017-09-18T17:22:19.573Z,71.10
2017-09-18T17:24:48.595Z,71.60
2017-09-18T17:27:16.879Z,71.50
2017-09-18T17:29:45.125Z,72.50
2017-09-18T17:32:16.192Z,72.50
2017-09-18T17:34:45.062Z,72.50
2017-09-18T17:37:13.823Z,72.50
2017-09-18T17:39:42.198Z,72.10
2017-09-18T17:42:10.434Z,72.50
2017-09-18T17:44:39.484Z,72.40
2017-09-18T17:47:07.793Z,72.30
2017-09-18T17:49:36.031Z,72.20
2017-09-18T17:52:04.298Z,72.80
2017-09-18T17:54:32.567Z,73.20
2017-09-18T17:57:01.581Z,73.40
2017-09-18T17:59:29.920Z,73.30
2017-09-18T18:01:58.148Z,76.60
2017-09-18T18:04:27.225Z,77.00
2017-09-18T18:06:56.234Z,79.00
2017-09-18T18:09:24.544Z,78.90
2017-09-18T18:11:52.798Z,78.90
2017-09-18T18:14:21.844Z,81.30
2017-09-18T18:16:50.115Z,81.40
2017-09-18T18:19:18.377Z,81.90
2017-09-18T18:21:46.662Z,83.10
2017-09-18T18:24:14.923Z,81.80
2017-09-18T18:26:43.617Z,82.30
2017-09-18T18:29:12.729Z,85.20
2017-09-18T18:31:41.037Z,85.20
2017-09-18T18:34:09.307Z,85.20
2017-09-18T18:36:37.559Z,84.60
2017-09-18T18:39:05.826Z,82.30
2017-09-18T18:41:34.850Z,83.40
2017-09-18T18:44:03.105Z,83.40
2017-09-18T18:46:31.356Z,85.00
2017-09-18T18:48:59.629Z,85.30
2017-09-18T18:51:27.998Z,84.80
2017-09-18T18:53:56.265Z,85.90
2017-09-18T18:56:24.555Z,86.20
2017-09-18T18:58:52.796Z,86.10
2017-09-18T19:01:21.064Z,86.20
2017-09-18T19:03:50.076Z,86.50
2017-09-18T19:06:19.116Z,86.30
2017-09-18T19:08:47.397Z,86.30
2017-09-18T19:11:15.652Z,86.20
2017-09-18T19:13:43.902Z,86.20
2017-09-18T19:16:12.939Z,87.00
2017-09-18T19:18:41.972Z,87.70
2017-09-18T19:21:11.017Z,88.10
2017-09-18T19:23:40.039Z,86.60
2017-09-18T19:26:08.310Z,86.60
2017-09-18T19:28:36.564Z,86.50
2017-09-18T19:31:05.593Z,86.60
2017-09-18T19:33:33.834Z,86.60
2017-09-18T19:36:02.861Z,87.70
2017-09-18T19:38:31.107Z,87.60
2017-09-18T19:41:00.127Z,88.60
2017-09-18T19:43:29.172Z,88.50
2017-09-18T19:45:57.415Z,88.50
2017-09-18T19:48:25.667Z,88.70
2017-09-18T19:50:53.939Z,88.00
2017-09-18T19:53:22.171Z,88.90
2017-09-18T19:55:51.210Z,88.80
2017-09-18T19:58:19.663Z,88.80
2017-09-18T20:00:47.917Z,88.90
2017-09-18T20:03:17.049Z,87.40
2017-09-18T20:05:45.295Z,87.40
2017-09-18T20:08:14.378Z,87.20
2017-09-18T20:10:43.385Z,87.10
2017-09-18T20:13:12.419Z,86.80
2017-09-18T20:15:40.667Z,86.80
2017-09-18T20:18:09.689Z,89.20
2017-09-18T20:20:37.926Z,89.10
2017-09-18T20:23:06.191Z,89.20
2017-09-18T20:25:34.430Z,89.20
2017-09-18T20:28:02.695Z,89.30
2017-09-18T20:30:30.935Z,89.20
2017-09-18T20:32:59.470Z,89.40
2017-09-18T20:35:27.716Z,90.10
2017-09-18T20:40:21.039Z,90.60
2017-09-18T20:42:49.295Z,90.80
2017-09-18T20:45:18.338Z,90.50
2017-09-18T20:47:46.606Z,90.50
2017-09-18T20:50:14.850Z,90.30
2017-09-18T20:52:43.879Z,90.60
2017-09-18T20:55:12.134Z,90.60
2017-09-18T20:57:41.168Z,90.70
2017-09-18T21:00:09.456Z,90.70
2017-09-18T21:02:37.748Z,90.90
2017-09-18T21:05:06.005Z,91.10
2017-09-18T21:07:34.267Z,90.90
2017-09-18T21:10:02.511Z,91.00
2017-09-18T21:12:30.851Z,91.00
2017-09-18T21:14:59.171Z,90.80
2017-09-18T21:17:27.407Z,90.80
2017-09-18T21:19:55.654Z,91.00
2017-09-18T21:22:24.702Z,91.30
2017-09-18T21:24:52.958Z,91.30
2017-09-18T21:27:21.257Z,91.50
2017-09-18T21:29:49.530Z,91.50
2017-09-18T21:32:17.782Z,91.50
2017-09-18T21:34:46.048Z,91.60
2017-09-18T21:37:15.060Z,91.40
2017-09-18T21:39:44.186Z,91.60
2017-09-18T21:42:12.473Z,91.60
2017-09-18T21:44:40.748Z,91.80
2017-09-18T21:47:09.058Z,91.90
2017-09-18T21:49:37.416Z,92.10
2017-09-18T21:52:05.663Z,92.10
2017-09-18T21:54:34.745Z,92.50
2017-09-18T21:57:04.504Z,92.50
2017-09-18T21:59:32.803Z,92.50
2017-09-18T22:02:01.074Z,92.70
2017-09-18T22:04:29.356Z,92.80
2017-09-18T22:06:57.631Z,92.90
2017-09-18T22:09:25.892Z,92.90
2017-09-18T22:11:54.206Z,92.90
2017-09-18T22:14:22.464Z,93.00
2017-09-18T22:16:50.708Z,93.10
2017-09-18T22:19:18.971Z,93.20
2017-09-18T22:21:47.223Z,93.30
2017-09-18T22:24:15.501Z,93.40
2017-09-18T22:26:43.755Z,93.50
2017-09-18T22:29:12.070Z,93.60
2017-09-18T22:31:40.330Z,93.80
2017-09-18T22:34:08.619Z,93.90
2017-09-18T22:36:36.918Z,94.00
2017-09-18T22:39:05.974Z,94.20
2017-09-18T22:41:34.250Z,94.20
2017-09-18T22:44:03.263Z,94.40
2017-09-18T22:46:31.523Z,94.50
2017-09-18T22:49:00.541Z,94.70
2017-09-18T22:51:28.959Z,94.70
2017-09-18T22:53:57.217Z,94.70
2017-09-18T22:56:25.487Z,94.70
2017-09-18T22:58:53.755Z,94.80
2017-09-18T23:01:22.790Z,94.90
2017-09-18T23:03:51.042Z,94.90
2017-09-18T23:06:19.306Z,95.00
2017-09-18T23:08:48.321Z,95.00
2017-09-18T23:11:16.571Z,95.00
2017-09-18T23:13:45.586Z,95.00
2017-09-18T23:16:13.868Z,95.00
2017-09-18T23:18:42.862Z,95.00
2017-09-18T23:21:11.184Z,94.90
2017-09-18T23:23:39.439Z,94.90
2017-09-18T23:26:07.736Z,94.80
2017-09-18T23:28:35.983Z,94.90
2017-09-18T23:31:05.170Z,95.00
2017-09-18T23:33:34.221Z,95.00
2017-09-18T23:36:02.506Z,95.00
2017-09-18T23:38:30.751Z,95.00
2017-09-18T23:40:59.015Z,95.10
2017-09-18T23:43:28.042Z,95.20
2017-09-18T23:45:56.280Z,95.20
2017-09-18T23:48:24.538Z,95.50
2017-09-18T23:50:52.782Z,95.30
2017-09-18T23:53:21.075Z,95.30
2017-09-18T23:55:49.327Z,95.30
2017-09-18T23:58:18.366Z,95.40
